createdAt,value
2018-10-17T00:02:32.600Z,19.43
2018-10-17T00:05:37.165Z,19.37
2018-10-17T00:08:42.022Z,17.90
2018-10-17T00:11:46.632Z,19.30
2018-10-17T00:14:51.191Z,17.40
2018-10-17T00:17:55.844Z,19.17
2018-10-17T00:21:00.398Z,15.23
2018-10-17T00:24:05.378Z,18.57
2018-10-17T00:27:10.010Z,16.13
2018-10-17T00:30:14.625Z,21.63
2018-10-17T00:33:19.378Z,19.53
2018-10-17T00:36:23.992Z,20.20
2018-10-17T00:39:28.723Z,18.67
2018-10-17T00:42:33.350Z,16.63
2018-10-17T00:45:38.042Z,20.87
2018-10-17T00:48:42.810Z,14.80
2018-10-17T00:51:47.502Z,19.47
2018-10-17T00:54:52.280Z,20.10
2018-10-17T00:57:56.977Z,18.30
2018-10-17T01:01:01.713Z,20.70
2018-10-17T01:04:06.741Z,19.23
2018-10-17T01:07:11.433Z,22.03
2018-10-17T01:10:16.066Z,23.17
2018-10-17T01:13:20.834Z,20.23
2018-10-17T01:16:25.471Z,20.97
2018-10-17T01:19:30.352Z,21.87
2018-10-17T01:22:34.984Z,19.20
2018-10-17T01:25:39.579Z,19.77
2018-10-17T01:28:44.396Z,18.53
2018-10-17T01:31:49.003Z,20.60
2018-10-17T01:34:56.806Z,20.70
2018-10-17T01:38:01.588Z,22.10
2018-10-17T01:41:06.518Z,22.57
2018-10-17T01:44:11.062Z,20.57
2018-10-17T01:47:15.782Z,24.30
2018-10-17T01:50:20.393Z,21.57
2018-10-17T01:53:25.003Z,22.10
2018-10-17T01:56:29.640Z,21.83
2018-10-17T01:59:34.379Z,19.37
2018-10-17T02:02:38.981Z,22.80
2018-10-17T02:05:43.810Z,20.77
2018-10-17T02:08:48.427Z,21.43
2018-10-17T02:11:53.016Z,20.73
2018-10-17T02:14:57.602Z,26.37
2018-10-17T02:18:02.166Z,25.30
2018-10-17T02:21:07.276Z,17.47
2018-10-17T02:24:12.823Z,20.30
2018-10-17T02:27:17.493Z,21.13
2018-10-17T02:30:22.196Z,22.50
2018-10-17T02:33:26.884Z,20.77
2018-10-17T02:36:31.544Z,18.10
2018-10-17T02:39:36.226Z,20.73
2018-10-17T02:42:41.244Z,20.57
2018-10-17T02:45:45.896Z,17.80
2018-10-17T02:48:50.542Z,23.50
2018-10-17T02:51:55.642Z,22.77
2018-10-17T02:55:00.247Z,21.27
2018-10-17T02:58:05.193Z,20.03
2018-10-17T03:01:09.819Z,19.67
2018-10-17T03:04:14.585Z,19.93
2018-10-17T03:07:19.507Z,21.23
2018-10-17T03:10:24.060Z,21.53
2018-10-17T03:13:28.688Z,22.10
2018-10-17T03:16:33.335Z,18.03
2018-10-17T03:19:38.182Z,16.93
2018-10-17T03:22:42.955Z,19.43
2018-10-17T03:25:47.704Z,21.17
2018-10-17T03:28:52.565Z,18.83
2018-10-17T03:31:57.253Z,21.13
2018-10-17T03:35:01.956Z,21.90
2018-10-17T03:38:07.014Z,29.73
2018-10-17T03:41:11.842Z,19.63
2018-10-17T03:44:16.605Z,25.70
2018-10-17T03:47:21.299Z,22.63
2018-10-17T03:50:25.944Z,26.17
2018-10-17T03:53:30.806Z,26.97
2018-10-17T03:56:35.655Z,20.20
2018-10-17T03:59:40.488Z,23.07
2018-10-17T04:02:44.799Z,21.97
2018-10-17T04:05:49.428Z,22.73
2018-10-17T04:08:54.200Z,23.10
2018-10-17T04:11:59.021Z,22.17
2018-10-17T04:15:03.720Z,23.97
2018-10-17T04:18:08.297Z,22.80
2018-10-17T04:21:13.035Z,22.53
2018-10-17T04:24:17.845Z,22.10
2018-10-17T04:27:22.418Z,22.03
2018-10-17T04:30:27.100Z,20.40
2018-10-17T04:33:31.649Z,20.23
2018-10-17T04:36:36.303Z,21.23
2018-10-17T04:39:41.095Z,21.23
2018-10-17T04:42:45.743Z,20.10
2018-10-17T04:45:50.577Z,28.63
2018-10-17T04:48:55.480Z,23.20
2018-10-17T04:52:00.301Z,19.33
2018-10-17T04:55:05.910Z,19.63
2018-10-17T04:58:10.514Z,21.23
2018-10-17T05:01:15.385Z,19.33
2018-10-17T05:04:19.957Z,24.53
2018-10-17T05:07:24.699Z,24.10
2018-10-17T05:10:29.528Z,25.00
2018-10-17T05:13:34.279Z,33.77
2018-10-17T05:16:39.041Z,29.27
2018-10-17T05:19:43.751Z,25.47
2018-10-17T05:22:48.428Z,28.03
2018-10-17T05:25:53.015Z,29.63
2018-10-17T05:28:57.685Z,24.67
2018-10-17T05:32:02.208Z,22.17
2018-10-17T05:35:07.835Z,22.83
2018-10-17T05:38:12.509Z,25.70
2018-10-17T05:41:17.141Z,24.60
2018-10-17T05:44:21.813Z,27.63
2018-10-17T05:47:26.305Z,68.30
2018-10-17T05:50:30.956Z,105.43
2018-10-17T05:53:35.626Z,73.60
2018-10-17T05:56:40.440Z,64.67
2018-10-17T05:59:45.376Z,69.87
2018-10-17T06:02:49.988Z,109.50
2018-10-17T06:05:54.545Z,73.40
2018-10-17T06:08:59.561Z,41.60
2018-10-17T06:12:04.312Z,24.13
2018-10-17T06:15:08.954Z,24.83
2018-10-17T06:18:13.512Z,61.70
2018-10-17T06:21:18.347Z,31.77
2018-10-17T06:24:22.947Z,18.57
2018-10-17T06:27:27.672Z,18.43
2018-10-17T06:30:32.329Z,34.20
2018-10-17T06:33:37.002Z,82.00
2018-10-17T06:36:41.580Z,164.90
2018-10-17T06:39:46.245Z,227.57
2018-10-17T06:42:50.851Z,177.67
2018-10-17T06:45:55.473Z,153.27
2018-10-17T06:49:00.140Z,195.27
2018-10-17T06:52:04.781Z,88.90
2018-10-17T06:55:09.401Z,84.27
2018-10-17T06:58:13.968Z,53.43
2018-10-17T07:01:18.605Z,73.90
2018-10-17T07:04:23.127Z,89.33
2018-10-17T07:07:27.798Z,84.00
2018-10-17T07:10:32.360Z,118.40
2018-10-17T07:13:36.980Z,192.67
2018-10-17T07:16:41.657Z,120.37
2018-10-17T07:19:46.240Z,135.57
2018-10-17T07:22:51.026Z,127.83
2018-10-17T07:25:55.648Z,94.97
2018-10-17T07:29:00.310Z,82.50
2018-10-17T07:32:04.972Z,92.07
2018-10-17T07:35:10.975Z,100.10
2018-10-17T07:38:15.691Z,47.83
2018-10-17T07:41:20.319Z,38.07
2018-10-17T07:44:25.108Z,31.27
2018-10-17T07:47:29.751Z,36.13
2018-10-17T07:50:34.398Z,27.60
2018-10-17T07:53:39.138Z,23.27
2018-10-17T07:56:43.787Z,28.67
2018-10-17T07:59:48.434Z,24.60
2018-10-17T08:02:53.041Z,22.60
2018-10-17T08:05:57.695Z,25.53
2018-10-17T08:09:02.436Z,21.87
2018-10-17T08:12:07.204Z,27.43
2018-10-17T08:15:12.032Z,24.50
2018-10-17T08:18:16.786Z,23.67
2018-10-17T08:21:21.386Z,21.60
2018-10-17T08:24:25.948Z,25.00
2018-10-17T08:27:30.861Z,21.83
2018-10-17T08:30:35.359Z,21.13
2018-10-17T08:33:39.984Z,21.97
2018-10-17T08:36:45.098Z,20.67
2018-10-17T08:39:49.614Z,26.67
2018-10-17T08:42:54.503Z,22.57
2018-10-17T08:45:59.260Z,25.43
2018-10-17T08:49:04.057Z,26.53
2018-10-17T08:52:09.679Z,24.47
2018-10-17T08:55:14.301Z,25.50
2018-10-17T08:58:19.024Z,26.47
2018-10-17T09:01:23.576Z,23.27
2018-10-17T09:04:28.178Z,24.47
2018-10-17T09:07:32.839Z,26.20
2018-10-17T09:10:37.423Z,20.97
2018-10-17T09:13:42.124Z,22.70
2018-10-17T09:16:47.012Z,23.90
2018-10-17T09:19:51.834Z,23.40
2018-10-17T09:22:56.241Z,23.03
2018-10-17T09:26:00.965Z,24.67
2018-10-17T09:29:05.682Z,22.00
2018-10-17T09:32:10.296Z,20.60
2018-10-17T09:35:15.074Z,22.87
2018-10-17T09:38:19.843Z,21.43
2018-10-17T09:41:24.560Z,24.60
2018-10-17T09:44:29.661Z,18.83
2018-10-17T09:47:34.495Z,19.70
2018-10-17T09:50:39.282Z,20.37
2018-10-17T09:53:44.010Z,21.77
2018-10-17T09:56:48.778Z,22.70
2018-10-17T09:59:53.697Z,20.73
2018-10-17T10:02:58.348Z,25.73
2018-10-17T10:06:03.150Z,23.17
2018-10-17T10:09:10.490Z,24.13
2018-10-17T10:12:15.377Z,21.70
2018-10-17T10:15:19.936Z,24.67
2018-10-17T10:18:24.637Z,18.83
2018-10-17T10:21:29.506Z,17.97
2018-10-17T10:24:34.175Z,17.13
2018-10-17T10:27:40.553Z,15.50
2018-10-17T10:30:45.209Z,15.57
2018-10-17T10:33:49.883Z,16.40
2018-10-17T10:36:54.562Z,15.97
2018-10-17T10:39:59.188Z,19.27
2018-10-17T10:43:03.974Z,20.93
2018-10-17T10:46:09.009Z,17.63
2018-10-17T10:49:13.805Z,17.73
2018-10-17T10:52:18.336Z,18.27
2018-10-17T10:55:23.126Z,19.43
2018-10-17T10:58:28.115Z,19.53
2018-10-17T11:01:32.645Z,16.07
2018-10-17T11:04:43.699Z,16.17
2018-10-17T11:07:48.209Z,17.47
2018-10-17T11:10:53.009Z,19.57
2018-10-17T11:13:57.743Z,17.17
2018-10-17T11:17:02.506Z,13.57
2018-10-17T11:20:08.535Z,19.00
2018-10-17T11:23:14.020Z,15.23
2018-10-17T11:26:18.608Z,14.30
2018-10-17T11:29:23.484Z,17.47
2018-10-17T11:32:28.070Z,15.80
2018-10-17T11:35:32.678Z,14.03
2018-10-17T11:38:37.374Z,14.40
2018-10-17T11:41:42.311Z,14.77
2018-10-17T11:44:47.096Z,15.00
2018-10-17T11:47:51.854Z,16.20
2018-10-17T11:50:56.347Z,18.00
2018-10-17T11:54:02.117Z,14.13
2018-10-17T11:57:06.928Z,18.40
2018-10-17T12:00:13.334Z,15.57
2018-10-17T12:03:18.214Z,16.43
2018-10-17T12:06:22.820Z,14.03
2018-10-17T12:09:27.484Z,13.93
2018-10-17T12:12:32.234Z,17.83
2018-10-17T12:15:40.960Z,18.70
2018-10-17T12:18:45.591Z,14.00
2018-10-17T12:21:50.643Z,16.07
2018-10-17T12:24:55.453Z,11.23
2018-10-17T12:28:00.395Z,11.63
2018-10-17T12:31:05.274Z,10.73
2018-10-17T12:34:09.979Z,10.63
2018-10-17T12:37:14.625Z,9.67
2018-10-17T12:40:19.570Z,9.23
2018-10-17T12:43:24.140Z,9.33
2018-10-17T12:46:29.067Z,15.70
2018-10-17T12:49:34.111Z,8.63
2018-10-17T12:52:38.935Z,7.80
2018-10-17T12:55:44.033Z,12.53
2018-10-17T12:58:49.171Z,8.90
2018-10-17T13:01:54.227Z,11.23
2018-10-17T13:04:58.992Z,10.67
2018-10-17T13:08:03.794Z,8.57
2018-10-17T13:11:08.526Z,10.80
2018-10-17T13:14:13.366Z,12.07
2018-10-17T13:17:18.330Z,11.43
2018-10-17T13:20:23.072Z,9.80
2018-10-17T13:23:28.065Z,8.20
2018-10-17T13:26:32.705Z,9.83
2018-10-17T13:29:37.618Z,8.83
2018-10-17T13:32:42.345Z,9.37
2018-10-17T13:35:47.057Z,9.47
2018-10-17T13:38:51.706Z,10.67
2018-10-17T13:41:56.654Z,8.33
2018-10-17T13:45:01.773Z,8.80
2018-10-17T13:48:06.723Z,8.40
2018-10-17T13:51:11.813Z,8.50
2018-10-17T13:54:16.503Z,9.67
2018-10-17T13:57:21.341Z,8.17
2018-10-17T14:00:26.122Z,8.20
2018-10-17T14:03:30.763Z,13.47
2018-10-17T14:06:35.517Z,7.47
2018-10-17T14:09:40.165Z,8.77
2018-10-17T14:12:44.838Z,7.60
2018-10-17T14:15:49.567Z,9.17
2018-10-17T14:18:54.258Z,8.23
2018-10-17T14:21:59.029Z,7.73
2018-10-17T14:25:03.744Z,9.27
2018-10-17T14:28:08.681Z,9.30
2018-10-17T14:31:13.266Z,7.43
2018-10-17T14:34:17.980Z,8.30
2018-10-17T14:37:22.679Z,8.37
2018-10-17T14:40:27.423Z,8.97
2018-10-17T14:43:32.288Z,11.30
2018-10-17T14:46:37.038Z,11.10
2018-10-17T14:49:41.880Z,12.60
2018-10-17T14:52:46.562Z,11.13
2018-10-17T14:55:51.327Z,8.57
2018-10-17T14:58:55.935Z,9.97
2018-10-17T15:02:00.731Z,10.83
2018-10-17T15:05:05.521Z,10.93
2018-10-17T15:08:10.158Z,8.27
2018-10-17T15:11:15.007Z,8.23
2018-10-17T15:14:19.627Z,9.90
2018-10-17T15:17:24.560Z,10.00
2018-10-17T15:20:29.331Z,10.13
2018-10-17T15:23:34.089Z,8.40
2018-10-17T15:26:38.723Z,10.83
2018-10-17T15:29:43.315Z,9.10
2018-10-17T15:32:48.266Z,8.20
2018-10-17T15:35:52.963Z,11.33
2018-10-17T15:38:57.606Z,11.50
2018-10-17T15:42:02.473Z,9.47
2018-10-17T15:45:07.714Z,10.20
2018-10-17T15:48:12.413Z,9.33
2018-10-17T15:51:16.974Z,8.87
2018-10-17T15:54:21.612Z,12.63
2018-10-17T15:57:26.341Z,9.93
2018-10-17T16:00:30.897Z,14.03
2018-10-17T16:03:35.594Z,10.27
2018-10-17T16:06:40.238Z,12.37
2018-10-17T16:09:44.927Z,10.47
2018-10-17T16:12:49.568Z,10.30
2018-10-17T16:15:54.306Z,9.70
2018-10-17T16:18:58.868Z,12.50
2018-10-17T16:22:03.464Z,10.53
2018-10-17T16:25:08.856Z,10.27
2018-10-17T16:28:13.500Z,11.37
2018-10-17T16:31:18.151Z,10.97
2018-10-17T16:34:22.794Z,9.33
2018-10-17T16:37:27.455Z,10.57
2018-10-17T16:40:32.174Z,14.40
2018-10-17T16:43:36.964Z,13.30
2018-10-17T16:46:41.758Z,17.13
2018-10-17T16:49:46.540Z,14.03
2018-10-17T16:52:51.070Z,14.23
2018-10-17T16:55:55.618Z,12.77
2018-10-17T16:59:00.159Z,14.33
2018-10-17T17:02:05.309Z,15.63
2018-10-17T17:05:13.615Z,13.80
2018-10-17T17:08:18.212Z,15.93
2018-10-17T17:11:22.861Z,13.73
2018-10-17T17:14:27.812Z,19.67
2018-10-17T17:17:32.393Z,22.57
2018-10-17T17:20:37.134Z,17.13
2018-10-17T17:23:42.274Z,20.13
2018-10-17T17:26:46.968Z,12.80
2018-10-17T17:29:51.977Z,15.03
2018-10-17T17:32:56.784Z,15.53
2018-10-17T17:36:01.430Z,15.60
2018-10-17T17:39:08.569Z,14.93
2018-10-17T17:42:13.244Z,16.20
2018-10-17T17:45:17.988Z,12.37
2018-10-17T17:48:22.599Z,17.57
2018-10-17T17:51:27.357Z,11.77
2018-10-17T17:54:32.024Z,15.37
2018-10-17T17:57:36.758Z,14.03
2018-10-17T18:00:41.295Z,13.83
2018-10-17T18:03:45.981Z,14.47
2018-10-17T18:06:50.689Z,14.53
2018-10-17T18:09:55.312Z,15.87
2018-10-17T18:13:00.008Z,18.57
2018-10-17T18:16:04.660Z,13.80
2018-10-17T18:19:09.445Z,18.40
2018-10-17T18:22:14.153Z,15.17
2018-10-17T18:25:18.791Z,14.10
2018-10-17T18:28:23.431Z,17.03
2018-10-17T18:31:28.108Z,16.23
2018-10-17T18:34:32.720Z,15.03
2018-10-17T18:37:37.789Z,16.27
2018-10-17T18:40:42.791Z,15.37
2018-10-17T18:43:47.636Z,17.30
2018-10-17T18:46:52.310Z,19.63
2018-10-17T18:49:57.046Z,16.37
2018-10-17T18:53:01.900Z,18.60
2018-10-17T18:56:06.698Z,20.43
2018-10-17T18:59:11.361Z,23.13
2018-10-17T19:02:16.080Z,20.80
2018-10-17T19:05:20.823Z,20.17
2018-10-17T19:08:25.414Z,23.23
2018-10-17T19:11:30.130Z,25.00
2018-10-17T19:14:34.773Z,21.40
2018-10-17T19:17:39.354Z,17.17
2018-10-17T19:20:43.989Z,16.87
2018-10-17T19:23:48.805Z,15.07
2018-10-17T19:26:53.534Z,16.37
2018-10-17T19:29:58.339Z,20.10
2018-10-17T19:33:02.919Z,15.87
2018-10-17T19:36:07.693Z,15.47
2018-10-17T19:39:13.217Z,19.47
2018-10-17T19:42:17.721Z,17.53
2018-10-17T19:45:29.510Z,23.10
2018-10-17T19:48:34.864Z,26.63
2018-10-17T19:51:39.749Z,21.00
2018-10-17T19:54:44.458Z,16.77
2018-10-17T19:57:49.258Z,15.67
2018-10-17T20:00:54.179Z,13.97
2018-10-17T20:03:58.869Z,16.20
2018-10-17T20:07:03.614Z,14.80
2018-10-17T20:10:08.712Z,13.00
2018-10-17T20:13:13.564Z,19.87
2018-10-17T20:16:18.253Z,16.90
2018-10-17T20:19:22.921Z,16.20
2018-10-17T20:22:27.538Z,18.27
2018-10-17T20:25:39.415Z,22.97
2018-10-17T20:28:44.037Z,21.40
2018-10-17T20:31:48.698Z,30.80
2018-10-17T20:34:53.368Z,25.43
2018-10-17T20:37:57.925Z,23.00
2018-10-17T20:41:02.703Z,21.03
2018-10-17T20:44:07.506Z,20.73
2018-10-17T20:47:12.097Z,16.97
2018-10-17T20:50:16.863Z,20.13
2018-10-17T20:53:21.431Z,18.27
2018-10-17T20:56:26.044Z,21.03
2018-10-17T20:59:30.623Z,16.13
2018-10-17T21:02:35.339Z,17.90
2018-10-17T21:05:39.987Z,23.07
2018-10-17T21:08:44.649Z,22.23
2018-10-17T21:11:49.384Z,21.37
2018-10-17T21:14:53.959Z,19.80
2018-10-17T21:17:58.631Z,22.53
2018-10-17T21:21:03.319Z,21.43
2018-10-17T21:24:07.894Z,21.20
2018-10-17T21:27:12.586Z,23.97
2018-10-17T21:30:17.365Z,21.53
2018-10-17T21:33:22.085Z,23.10
2018-10-17T21:36:28.808Z,24.00
2018-10-17T21:39:33.451Z,22.77
2018-10-17T21:42:38.346Z,24.40
2018-10-17T21:45:43.059Z,22.50
2018-10-17T21:48:48.047Z,21.20
2018-10-17T21:51:52.647Z,22.17
2018-10-17T21:54:57.376Z,24.13
2018-10-17T21:58:01.980Z,21.83
2018-10-17T22:01:06.669Z,23.20
2018-10-17T22:04:11.367Z,24.53
2018-10-17T22:07:16.142Z,21.93
2018-10-17T22:10:20.889Z,21.20
2018-10-17T22:13:25.487Z,22.20
2018-10-17T22:16:35.496Z,20.33
2018-10-17T22:19:40.460Z,18.03
2018-10-17T22:22:45.479Z,22.13
2018-10-17T22:25:50.497Z,19.47
2018-10-17T22:28:55.207Z,19.53
2018-10-17T22:32:00.101Z,22.10
2018-10-17T22:35:04.785Z,25.13
2018-10-17T22:38:09.412Z,22.00
2018-10-17T22:41:14.276Z,19.93
2018-10-17T22:44:18.855Z,21.77
2018-10-17T22:47:23.568Z,23.53
2018-10-17T22:50:28.844Z,21.83
2018-10-17T22:53:33.513Z,21.57
2018-10-17T22:56:39.161Z,24.93
2018-10-17T22:59:44.045Z,24.47
2018-10-17T23:02:48.738Z,31.90
2018-10-17T23:05:53.295Z,29.93
2018-10-17T23:08:57.902Z,24.17
2018-10-17T23:12:02.556Z,21.37
2018-10-17T23:15:12.890Z,21.47
2018-10-17T23:18:17.514Z,19.67
2018-10-17T23:21:22.088Z,21.87
2018-10-17T23:24:26.646Z,21.23
2018-10-17T23:27:31.388Z,21.27
2018-10-17T23:30:35.939Z,24.33
2018-10-17T23:33:40.614Z,21.53
2018-10-17T23:36:45.329Z,19.90
2018-10-17T23:39:50.263Z,21.13
2018-10-17T23:42:54.956Z,22.50
2018-10-17T23:46:00.582Z,24.77
2018-10-17T23:49:05.436Z,22.97
2018-10-17T23:52:10.031Z,23.20
2018-10-17T23:55:14.798Z,24.70
2018-10-17T23:58:19.490Z,22.20
